Time;durP1;ratioP1;P1;durP2;ratioP2;P2;SDS_P1;SDS_P2;PMS_P1;PMS_P2;Temp;Humidity;BMP_temperature;BMP_pressure;BME280_temperature;BME280_humidity;BME280_pressure;Samples;Min_cycle;Max_cycle;Signal;HPM_P1;HPM_P2
2022/11/07 00:02:06;;;;;;;6.43;4.28;;;;;;;;;;4886128;29;20542;-87
2022/11/07 00:04:32;;;;;;;8.95;5.50;;;;;;;;;;4900782;29;20083;-92
2022/11/07 00:06:58;;;;;;;7.40;5.47;;;;;;;;;;4904016;29;20040;-90
2022/11/07 00:09:24;;;;;;;6.68;4.95;;;;;;;;;;4913509;29;20111;-91
2022/11/07 00:11:49;;;;;;;7.07;5.80;;;;;;;;;;4920036;29;20131;-89
2022/11/07 00:14:16;;;;;;;8.65;5.30;;;;;;;;;;4903078;29;20064;-90
2022/11/07 00:16:43;;;;;;;6.50;4.72;;;;;;;;;;4910850;29;20111;-88
2022/11/07 00:19:09;;;;;;;10.10;5.47;;;;;;;;;;4884016;29;20508;-88
2022/11/07 00:21:34;;;;;;;8.55;5.15;;;;;;;;;;4915110;29;20039;-89
2022/11/07 00:24:00;;;;;;;8.63;4.55;;;;;;;;;;4900375;29;20394;-88
2022/11/07 00:26:25;;;;;;;9.68;5.85;;;;;;;;;;4917318;29;20040;-86
2022/11/07 00:28:51;;;;;;;6.18;3.40;;;;;;;;;;4911949;29;20486;-87
2022/11/07 00:31:17;;;;;;;6.15;4.15;;;;;;;;;;4910326;29;20068;-88
2022/11/07 00:33:43;;;;;;;8.80;5.03;;;;;;;;;;4911066;29;20512;-87
2022/11/07 00:36:15;;;;;;;11.45;6.22;;;;;;;;;;4908316;29;20059;-88
2022/11/07 00:38:41;;;;;;;7.55;4.35;;;;;;;;;;4912910;29;20032;-87
2022/11/07 00:41:06;;;;;;;8.68;4.40;;;;;;;;;;4908870;29;20091;-85
2022/11/07 00:43:32;;;;;;;11.60;5.55;;;;;;;;;;4895725;29;20044;-88
2022/11/07 00:46:02;;;;;;;10.50;6.35;;;;;;;;;;4883421;29;20497;-88
2022/11/07 00:48:29;;;;;;;9.98;5.85;;;;;;;;;;4909346;29;20048;-89
2022/11/07 00:50:54;;;;;;;6.57;4.68;;;;;;;;;;4898014;29;20051;-89
2022/11/07 00:53:19;;;;;;;7.10;5.00;;;;;;;;;;4909650;29;20398;-88
2022/11/07 00:55:45;;;;;;;17.08;6.97;;;;;;;;;;4908211;29;20047;-87
2022/11/07 00:58:10;;;;;;;8.27;5.25;;;;;;;;;;4909888;29;20032;-89
2022/11/07 01:00:36;;;;;;;6.50;5.07;;;;;;;;;;4907676;29;20055;-85
2022/11/07 01:06:02;;;;;;;9.20;4.70;;;;;;;;;;4897683;29;20043;-87
2022/11/07 01:08:28;;;;;;;7.00;5.32;;;;;;;;;;4907972;29;20032;-86
2022/11/07 01:10:53;;;;;;;7.43;5.07;;;;;;;;;;4889762;29;20370;-86
2022/11/07 01:13:19;;;;;;;5.28;4.07;;;;;;;;;;4906083;29;20039;-87
2022/11/07 01:15:45;;;;;;;7.60;4.85;;;;;;;;;;4914162;29;20032;-86
2022/11/07 01:18:11;;;;;;;6.65;4.30;;;;;;;;;;4916952;29;20059;-86
2022/11/07 01:20:36;;;;;;;9.55;3.65;;;;;;;;;;4912296;29;20021;-86
2022/11/07 01:23:01;;;;;;;9.93;4.03;;;;;;;;;;4907628;29;20438;-85
2022/11/07 01:25:27;;;;;;;8.00;4.47;;;;;;;;;;4910319;29;20039;-86
2022/11/07 01:27:52;;;;;;;7.82;4.53;;;;;;;;;;4906242;29;20033;-86
2022/11/07 01:30:17;;;;;;;6.70;4.82;;;;;;;;;;4915669;29;20051;-88
2022/11/07 01:32:43;;;;;;;10.65;5.82;;;;;;;;;;4908995;29;20042;-89
2022/11/07 01:35:08;;;;;;;6.55;4.68;;;;;;;;;;4886456;29;20067;-87
2022/11/07 01:37:34;;;;;;;4.53;3.60;;;;;;;;;;4898263;29;20506;-87
2022/11/07 01:39:59;;;;;;;5.75;4.38;;;;;;;;;;4904192;29;20032;-88
2022/11/07 01:42:25;;;;;;;7.15;4.80;;;;;;;;;;4904490;29;20044;-90
2022/11/07 01:44:55;;;;;;;5.95;3.60;;;;;;;;;;4908590;29;20119;-88
2022/11/07 01:47:23;;;;;;;4.35;3.38;;;;;;;;;;4913018;29;20036;-90
2022/11/07 01:49:49;;;;;;;6.22;3.80;;;;;;;;;;4893396;29;20047;-90
2022/11/07 01:52:20;;;;;;;7.88;4.43;;;;;;;;;;4899558;29;20517;-92
2022/11/07 01:55:00;;;;;;;7.35;5.05;;;;;;;;;;4899485;29;20481;-89
2022/11/07 01:57:31;;;;;;;5.50;3.42;;;;;;;;;;4913568;29;20040;-88
2022/11/07 02:00:00;;;;;;;6.78;4.30;;;;;;;;;;4882482;29;20119;-89
2022/11/07 02:02:26;;;;;;;2.97;2.25;;;;;;;;;;4898555;29;20107;-87
2022/11/07 02:04:55;;;;;;;4.43;3.28;;;;;;;;;;4910105;29;20039;-90
2022/11/07 02:07:25;;;;;;;6.40;3.67;;;;;;;;;;4906891;29;20111;-89
2022/11/07 02:09:52;;;;;;;5.65;3.53;;;;;;;;;;4914163;29;20067;-89
2022/11/07 02:12:18;;;;;;;7.82;4.25;;;;;;;;;;4912460;29;20486;-91
2022/11/07 02:14:44;;;;;;;7.03;3.80;;;;;;;;;;4900414;29;20044;-89
2022/11/07 02:17:13;;;;;;;8.98;5.75;;;;;;;;;;4908781;29;20037;-89
2022/11/07 02:19:41;;;;;;;;;;;;;;;;;;4899410;29;20497;-89
2022/11/07 02:22:43;;;;;;;11.15;4.88;;;;;;;;;;4883921;29;19919;-90
2022/11/07 02:25:12;;;;;;;11.45;4.22;;;;;;;;;;4902462;29;20040;-88
2022/11/07 02:27:38;;;;;;;8.68;5.03;;;;;;;;;;4887608;29;20050;-89
2022/11/07 02:30:11;;;;;;;8.75;5.57;;;;;;;;;;4909201;29;20059;-89
2022/11/07 02:32:37;;;;;;;7.15;4.55;;;;;;;;;;4905933;29;20055;-88
2022/11/07 02:35:06;;;;;;;8.23;4.72;;;;;;;;;;4908332;29;20107;-91
2022/11/07 02:37:38;;;;;;;7.23;4.30;;;;;;;;;;4908319;29;20044;-92
2022/11/07 02:40:06;;;;;;;6.25;3.65;;;;;;;;;;4898169;29;20461;-90
2022/11/07 02:42:42;;;;;;;7.07;3.80;;;;;;;;;;4899157;29;20036;-85
2022/11/07 02:45:14;;;;;;;3.88;2.67;;;;;;;;;;4886464;29;20052;-89
2022/11/07 02:47:40;;;;;;;4.50;2.78;;;;;;;;;;4905612;29;20111;-88
2022/11/07 02:50:10;;;;;;;5.60;3.47;;;;;;;;;;4909376;29;20079;-87
2022/11/07 02:52:36;;;;;;;9.40;4.18;;;;;;;;;;4910479;29;20040;-87
2022/11/07 02:55:03;;;;;;;4.63;3.08;;;;;;;;;;4903376;29;20126;-86
2022/11/07 02:57:29;;;;;;;11.65;5.40;;;;;;;;;;4909765;29;20032;-86
2022/11/07 02:59:56;;;;;;;4.90;3.08;;;;;;;;;;4906503;29;20055;-88
2022/11/07 03:02:22;;;;;;;5.05;3.45;;;;;;;;;;4912391;29;20036;-90
2022/11/07 03:04:47;;;;;;;4.25;2.88;;;;;;;;;;4897142;29;20087;-90
2022/11/07 03:07:13;;;;;;;5.38;2.70;;;;;;;;;;4895020;29;20031;-94
2022/11/07 03:09:38;;;;;;;5.55;2.72;;;;;;;;;;4895042;29;20351;-90
2022/11/07 03:12:04;;;;;;;6.18;3.33;;;;;;;;;;4904513;29;20032;-91
2022/11/07 03:14:29;;;;;;;4.60;2.88;;;;;;;;;;4885917;29;20136;-91
2022/11/07 03:16:55;;;;;;;4.38;2.58;;;;;;;;;;4900814;29;20036;-91
2022/11/07 03:19:20;;;;;;;4.80;3.60;;;;;;;;;;4889891;29;20121;-90
2022/11/07 03:21:49;;;;;;;12.05;2.90;;;;;;;;;;4903769;29;20032;-88
2022/11/07 03:24:15;;;;;;;3.57;2.53;;;;;;;;;;4899960;29;20039;-91
2022/11/07 03:26:40;;;;;;;4.40;2.55;;;;;;;;;;4911626;29;20539;-90
2022/11/07 03:29:05;;;;;;;4.07;2.33;;;;;;;;;;4895864;29;20040;-90
2022/11/07 03:31:31;;;;;;;6.20;3.83;;;;;;;;;;4895621;29;20073;-86
2022/11/07 03:33:56;;;;;;;6.30;3.10;;;;;;;;;;4911663;29;20043;-89
2022/11/07 03:36:22;;;;;;;4.82;2.85;;;;;;;;;;4904996;29;20048;-91
2022/11/07 03:38:48;;;;;;;4.88;3.22;;;;;;;;;;4892440;29;20397;-89
2022/11/07 03:41:16;;;;;;;9.68;4.45;;;;;;;;;;4912522;29;20052;-92
2022/11/07 03:43:44;;;;;;;6.10;4.13;;;;;;;;;;4910318;29;20040;-90
2022/11/07 03:46:10;;;;;;;5.38;4.00;;;;;;;;;;4894966;29;20040;-89
2022/11/07 03:48:36;;;;;;;7.15;4.60;;;;;;;;;;4909495;29;20045;-89
2022/11/07 03:51:01;;;;;;;5.50;3.75;;;;;;;;;;4905930;29;20041;-91
2022/11/07 03:53:26;;;;;;;3.47;2.78;;;;;;;;;;4907996;29;20032;-90
2022/11/07 03:55:54;;;;;;;10.68;3.83;;;;;;;;;;4908970;29;20028;-88
2022/11/07 03:58:19;;;;;;;3.30;3.00;;;;;;;;;;4908457;29;20059;-90
2022/11/07 04:00:45;;;;;;;5.25;3.72;;;;;;;;;;4913653;29;20052;-90
2022/11/07 04:03:10;;;;;;;5.25;2.80;;;;;;;;;;4899307;29;20043;-90
2022/11/07 04:05:36;;;;;;;5.88;3.25;;;;;;;;;;4896285;29;20040;-89
2022/11/07 04:08:01;;;;;;;6.13;2.83;;;;;;;;;;4912476;29;20116;-92
2022/11/07 04:10:27;;;;;;;7.97;4.05;;;;;;;;;;4896968;29;20048;-90
2022/11/07 04:18:22;;;;;;;6.57;3.40;;;;;;;;;;4903894;29;20104;-89
2022/11/07 04:20:47;;;;;;;4.28;2.40;;;;;;;;;;4896205;29;20393;-89
2022/11/07 04:23:13;;;;;;;4.75;2.53;;;;;;;;;;4907296;29;20036;-88
2022/11/07 04:28:22;;;;;;;5.85;4.43;;;;;;;;;;4915586;29;20068;-89
2022/11/07 04:30:47;;;;;;;4.63;2.85;;;;;;;;;;4908564;29;20040;-88
2022/11/07 04:33:13;;;;;;;2.67;2.03;;;;;;;;;;4907261;29;20500;-88
2022/11/07 04:35:38;;;;;;;4.93;3.25;;;;;;;;;;4894409;29;20044;-88
2022/11/07 04:38:04;;;;;;;4.50;2.35;;;;;;;;;;4895351;29;20040;-90
2022/11/07 04:40:29;;;;;;;16.60;4.70;;;;;;;;;;4892747;29;20044;-90
2022/11/07 04:42:55;;;;;;;5.60;3.53;;;;;;;;;;4904560;29;20032;-91
2022/11/07 04:45:20;;;;;;;8.90;4.80;;;;;;;;;;4900440;29;20052;-88
2022/11/07 04:47:46;;;;;;;5.53;3.35;;;;;;;;;;4915616;29;20419;-86
2022/11/07 04:50:14;;;;;;;5.93;3.50;;;;;;;;;;4898927;29;20047;-87
2022/11/07 04:52:40;;;;;;;2.58;1.90;;;;;;;;;;4899296;29;20433;-89
2022/11/07 04:55:07;;;;;;;8.32;3.70;;;;;;;;;;4906524;29;20036;-90
2022/11/07 04:57:32;;;;;;;8.25;4.05;;;;;;;;;;4907565;29;20040;-91
2022/11/07 04:59:58;;;;;;;8.40;3.72;;;;;;;;;;4899506;29;20401;-88
2022/11/07 05:02:23;;;;;;;5.70;3.60;;;;;;;;;;4915717;29;20536;-89
2022/11/07 05:04:50;;;;;;;6.32;4.20;;;;;;;;;;4909093;29;20111;-90
2022/11/07 05:07:16;;;;;;;7.97;3.05;;;;;;;;;;4905622;29;20106;-88
2022/11/07 05:09:42;;;;;;;8.73;4.32;;;;;;;;;;4914350;29;20040;-88
2022/11/07 05:12:07;;;;;;;5.70;4.28;;;;;;;;;;4909923;29;20036;-91
2022/11/07 05:14:34;;;;;;;6.97;5.25;;;;;;;;;;4898080;29;20064;-89
2022/11/07 05:17:00;;;;;;;8.35;4.57;;;;;;;;;;4905392;29;20055;-89
2022/11/07 05:19:25;;;;;;;16.58;7.35;;;;;;;;;;4911840;29;20031;-89
2022/11/07 05:23:10;;;;;;;7.32;4.20;;;;;;;;;;4911179;29;20039;-90
2022/11/07 05:24:37;;;;;;;4.88;3.33;;;;;;;;;;4915248;29;20036;-89
2022/11/07 05:27:02;;;;;;;4.75;4.00;;;;;;;;;;4895897;29;20036;-86
2022/11/07 05:29:28;;;;;;;6.05;3.20;;;;;;;;;;4912297;29;20036;-86
2022/11/07 05:31:53;;;;;;;10.32;5.47;;;;;;;;;;4915398;29;20051;-89
2022/11/07 05:34:19;;;;;;;8.57;4.70;;;;;;;;;;4913779;29;20028;-89
2022/11/07 05:36:44;;;;;;;5.57;4.22;;;;;;;;;;4901389;29;20135;-86
2022/11/07 05:39:10;;;;;;;8.15;4.25;;;;;;;;;;4892346;29;20064;-87
2022/11/07 05:41:35;;;;;;;10.20;4.90;;;;;;;;;;4909077;29;20040;-88
2022/11/07 05:44:01;;;;;;;5.47;3.58;;;;;;;;;;4910922;29;20044;-88
2022/11/07 05:46:26;;;;;;;7.47;4.22;;;;;;;;;;4917438;29;20106;-92
2022/11/07 05:48:52;;;;;;;8.82;4.85;;;;;;;;;;4907884;29;20060;-90
2022/11/07 05:51:17;;;;;;;5.30;4.05;;;;;;;;;;4915040;29;20398;-86
2022/11/07 05:53:42;;;;;;;7.15;4.70;;;;;;;;;;4897501;29;20040;-87
2022/11/07 05:56:08;;;;;;;9.40;5.43;;;;;;;;;;4912581;29;20043;-90
2022/11/07 05:58:33;;;;;;;7.35;4.78;;;;;;;;;;4913150;29;20035;-88
2022/11/07 06:01:01;;;;;;;9.18;5.40;;;;;;;;;;4891962;29;20031;-87
2022/11/07 06:03:26;;;;;;;6.88;4.45;;;;;;;;;;4915978;29;20091;-87
2022/11/07 06:05:51;;;;;;;11.57;6.32;;;;;;;;;;4913619;29;20036;-89
2022/11/07 06:08:17;;;;;;;9.75;6.85;;;;;;;;;;4917866;29;20056;-89
2022/11/07 06:10:42;;;;;;;17.60;8.18;;;;;;;;;;4913697;29;20127;-88
2022/11/07 06:13:13;;;;;;;8.18;4.97;;;;;;;;;;4897024;29;20036;-88
2022/11/07 06:15:40;;;;;;;11.13;6.25;;;;;;;;;;4918207;29;20048;-90
2022/11/07 06:18:10;;;;;;;6.85;4.13;;;;;;;;;;4911965;29;20036;-89
2022/11/07 06:20:35;;;;;;;;;;;;;;;;;;4894237;29;20414;-87
2022/11/07 06:23:02;;;;;;;7.78;5.55;;;;;;;;;;4909353;29;19975;-89
2022/11/07 06:25:28;;;;;;;7.30;4.85;;;;;;;;;;4901462;29;20040;-88
2022/11/07 06:28:02;;;;;;;10.88;6.07;;;;;;;;;;4898207;29;20043;-85
2022/11/07 06:30:28;;;;;;;8.60;5.10;;;;;;;;;;4915482;29;20051;-88
2022/11/07 06:32:54;;;;;;;7.88;5.20;;;;;;;;;;4909539;29;20055;-87
2022/11/07 06:35:19;;;;;;;9.70;5.80;;;;;;;;;;4913818;29;20028;-87
2022/11/07 06:37:45;;;;;;;8.75;5.63;;;;;;;;;;4897961;29;20462;-88
2022/11/07 06:40:10;;;;;;;9.43;5.38;;;;;;;;;;4898847;29;20039;-88
2022/11/07 06:43:06;;;;;;;10.20;5.82;;;;;;;;;;4914065;29;20040;-90
2022/11/07 06:45:31;;;;;;;10.73;6.57;;;;;;;;;;4915775;29;20064;-85
2022/11/07 06:47:57;;;;;;;13.00;6.03;;;;;;;;;;4893590;29;20055;-89
2022/11/07 06:50:22;;;;;;;10.25;5.47;;;;;;;;;;4910950;29;20086;-85
2022/11/07 06:52:48;;;;;;;8.50;5.97;;;;;;;;;;4888322;29;20036;-88
2022/11/07 06:55:13;;;;;;;7.95;5.28;;;;;;;;;;4910518;29;20096;-88
2022/11/07 06:57:38;;;;;;;8.80;5.65;;;;;;;;;;4910814;29;20098;-89
2022/11/07 07:00:04;;;;;;;8.93;5.60;;;;;;;;;;4909165;29;20032;-86
2022/11/07 07:02:30;;;;;;;6.38;5.18;;;;;;;;;;4891558;29;20113;-85
2022/11/07 07:04:55;;;;;;;6.93;4.50;;;;;;;;;;4893888;29;20040;-88
2022/11/07 07:07:21;;;;;;;9.73;5.90;;;;;;;;;;4912862;29;20378;-90
2022/11/07 07:09:46;;;;;;;7.70;5.05;;;;;;;;;;4900246;29;20051;-87
2022/11/07 07:12:11;;;;;;;10.32;5.78;;;;;;;;;;4910257;29;20047;-90
2022/11/07 07:14:37;;;;;;;8.65;5.97;;;;;;;;;;4906579;29;20039;-88
2022/11/07 07:17:02;;;;;;;8.75;5.13;;;;;;;;;;4914189;29;20032;-87
2022/11/07 07:19:29;;;;;;;6.93;4.57;;;;;;;;;;4913584;29;20039;-87
2022/11/07 07:21:54;;;;;;;8.90;4.50;;;;;;;;;;4898440;29;20041;-88
2022/11/07 07:24:20;;;;;;;10.20;6.35;;;;;;;;;;4912143;29;20167;-87
2022/11/07 07:26:45;;;;;;;8.15;5.30;;;;;;;;;;4907234;29;20080;-86
2022/11/07 07:29:11;;;;;;;7.95;5.13;;;;;;;;;;4913247;29;20032;-91
2022/11/07 07:31:36;;;;;;;9.32;6.32;;;;;;;;;;4907033;29;20055;-89
2022/11/07 07:34:01;;;;;;;7.05;4.85;;;;;;;;;;4899429;29;20047;-88
2022/11/07 07:36:28;;;;;;;13.45;6.05;;;;;;;;;;4891838;29;20052;-88
2022/11/07 07:38:53;;;;;;;9.98;5.32;;;;;;;;;;4912757;29;20063;-87
2022/11/07 07:41:19;;;;;;;11.30;5.82;;;;;;;;;;4912010;29;20403;-89
2022/11/07 07:43:44;;;;;;;12.15;5.80;;;;;;;;;;4899827;29;20172;-91
2022/11/07 07:46:14;;;;;;;39.45;21.33;;;;;;;;;;4890511;29;20117;-89
2022/11/07 07:48:39;;;;;;;19.73;10.57;;;;;;;;;;4897859;29;20456;-88
2022/11/07 07:51:05;;;;;;;17.90;10.02;;;;;;;;;;4895590;29;20064;-88
2022/11/07 07:53:31;;;;;;;10.75;6.93;;;;;;;;;;4893166;29;20048;-89
2022/11/07 07:55:58;;;;;;;10.07;6.50;;;;;;;;;;4892752;29;20047;-89
2022/11/07 08:22:54;;;;;;;12.02;6.22;;;;;;;;;;4911928;29;20450;-87
2022/11/07 08:36:22;;;;;;;12.25;6.85;;;;;;;;;;4907344;29;20485;-87
2022/11/07 09:24:20;;;;;;;;;;;;;;;;;;;;;
2022/11/07 09:27:50;;;;;;;;;;;;;;;;;;;;;
2022/11/07 09:30:34;;;;;;;;;;;;;;;;;;4715069;30;20041;-85
2022/11/07 09:33:42;;;;;;;9.60;5.78;;;;;;;;;;4714503;30;19933;-85
2022/11/07 09:36:53;;;;;;;6.85;4.97;;;;;;;;;;4697771;30;20057;-86
2022/11/07 09:39:44;;;;;;;7.28;4.32;;;;;;;;;;4686142;30;20149;-83
2022/11/07 09:56:41;;;;;;;5.82;3.97;;;;;;;;;;4682903;30;20048;-86
2022/11/07 09:59:18;;;;;;;8.32;5.03;;;;;;;;;;4758738;29;20043;-86
2022/11/07 10:01:43;;;;;;;6.45;4.50;;;;;;;;;;4891464;29;20036;-86
2022/11/07 10:04:16;;;;;;;5.25;3.55;;;;;;;;;;4887259;29;20480;-85
2022/11/07 10:06:48;;;;;;;5.95;3.70;;;;;;;;;;4897974;29;20040;-86
2022/11/07 10:09:41;;;;;;;9.10;4.90;;;;;;;;;;4895868;29;20041;-85
2022/11/07 10:12:31;;;;;;;9.00;5.18;;;;;;;;;;4893576;29;20386;-88
2022/11/07 10:15:09;;;;;;;7.93;3.13;;;;;;;;;;4896403;29;20040;-84
2022/11/07 10:18:00;;;;;;;8.77;4.68;;;;;;;;;;4890324;29;20369;-89
2022/11/07 10:20:58;;;;;;;8.23;4.88;;;;;;;;;;4897871;29;20490;-86
2022/11/07 10:23:23;;;;;;;10.38;5.07;;;;;;;;;;4893363;29;20112;-86
2022/11/07 10:26:20;;;;;;;7.57;4.05;;;;;;;;;;4893228;29;20434;-85
2022/11/07 10:29:20;;;;;;;5.95;4.15;;;;;;;;;;4879033;29;20067;-86
2022/11/07 10:31:59;;;;;;;7.82;4.13;;;;;;;;;;4877317;29;20052;-87
2022/11/07 10:34:36;;;;;;;5.00;3.15;;;;;;;;;;4877147;29;20509;-89
2022/11/07 10:37:02;;;;;;;10.63;4.03;;;;;;;;;;4875335;29;20493;-87
2022/11/07 10:39:30;;;;;;;8.63;5.00;;;;;;;;;;4886351;29;20044;-87
2022/11/07 10:42:04;;;;;;;7.78;4.35;;;;;;;;;;4902471;29;20046;-87
2022/11/07 10:44:30;;;;;;;7.18;4.22;;;;;;;;;;4894376;29;20564;-87
2022/11/07 10:46:56;;;;;;;8.13;5.18;;;;;;;;;;4892825;29;20044;-87
2022/11/07 10:49:27;;;;;;;16.45;4.55;;;;;;;;;;4880969;29;20053;-86
2022/11/07 10:51:54;;;;;;;6.20;3.70;;;;;;;;;;4907907;29;20047;-86
2022/11/07 10:54:29;;;;;;;9.15;6.03;;;;;;;;;;4912431;29;20043;-87
2022/11/07 10:57:03;;;;;;;6.18;4.28;;;;;;;;;;4910452;29;20075;-86
2022/11/07 10:59:31;;;;;;;5.05;3.80;;;;;;;;;;4899177;29;20045;-86
2022/11/07 11:01:58;;;;;;;6.15;3.17;;;;;;;;;;4913656;29;20040;-84
2022/11/07 11:04:29;;;;;;;6.05;3.95;;;;;;;;;;4915410;29;20139;-86
2022/11/07 11:07:00;;;;;;;8.07;3.70;;;;;;;;;;4913827;29;20111;-88
2022/11/07 11:09:33;;;;;;;13.25;4.25;;;;;;;;;;4918619;29;20457;-86
2022/11/07 11:12:27;;;;;;;9.98;5.07;;;;;;;;;;4909690;29;20417;-87
2022/11/07 11:15:09;;;;;;;4.93;3.58;;;;;;;;;;4908308;29;20088;-88
2022/11/07 11:17:34;;;;;;;8.93;3.67;;;;;;;;;;4912714;29;20039;-87
2022/11/07 11:20:00;;;;;;;12.48;4.47;;;;;;;;;;4902217;29;20063;-88
2022/11/07 11:22:27;;;;;;;7.85;4.47;;;;;;;;;;4899417;29;20075;-87
2022/11/07 11:25:18;;;;;;;7.70;4.07;;;;;;;;;;4920144;29;20059;-86
2022/11/07 11:27:45;;;;;;;5.65;3.58;;;;;;;;;;4917973;29;20044;-87
2022/11/07 11:30:16;;;;;;;8.10;4.63;;;;;;;;;;4914891;29;20474;-87
2022/11/07 11:32:52;;;;;;;4.93;3.35;;;;;;;;;;4919280;29;20040;-86
2022/11/07 11:35:48;;;;;;;10.50;3.63;;;;;;;;;;4914662;29;20040;-87
2022/11/07 11:38:13;;;;;;;6.00;4.00;;;;;;;;;;4910866;29;20402;-85
2022/11/07 11:40:43;;;;;;;5.97;3.88;;;;;;;;;;4897898;29;20047;-88
2022/11/07 11:43:21;;;;;;;10.77;4.32;;;;;;;;;;4911519;29;20119;-87
2022/11/07 11:46:12;;;;;;;6.75;3.60;;;;;;;;;;4895667;29;20024;-85
2022/11/07 11:48:44;;;;;;;6.18;3.40;;;;;;;;;;4915643;29;20040;-87
2022/11/07 11:51:22;;;;;;;7.68;3.95;;;;;;;;;;4914766;29;20722;-87
2022/11/07 11:53:47;;;;;;;7.60;3.95;;;;;;;;;;4918273;29;20056;-87
2022/11/07 11:56:34;;;;;;;6.57;3.50;;;;;;;;;;4919980;29;20036;-86
2022/11/07 11:59:30;;;;;;;5.38;3.25;;;;;;;;;;4917553;29;20065;-87
2022/11/07 12:02:33;;;;;;;6.22;3.30;;;;;;;;;;4904460;29;20032;-89
2022/11/07 12:05:14;;;;;;;6.18;3.67;;;;;;;;;;4908403;29;20123;-89
2022/11/07 12:07:52;;;;;;;4.50;3.45;;;;;;;;;;4912546;29;20059;-88
2022/11/07 12:10:23;;;;;;;6.95;4.25;;;;;;;;;;4902381;29;20074;-88
2022/11/07 12:13:26;;;;;;;6.32;3.42;;;;;;;;;;4919925;29;20374;-88
2022/11/07 12:16:16;;;;;;;7.35;4.18;;;;;;;;;;4917644;29;20041;-87
2022/11/07 12:18:53;;;;;;;10.63;4.05;;;;;;;;;;4904593;29;20047;-87
2022/11/07 12:21:24;;;;;;;6.75;4.00;;;;;;;;;;4908104;29;20365;-87
2022/11/07 12:24:22;;;;;;;8.13;4.18;;;;;;;;;;4917885;29;20039;-86
2022/11/07 12:26:56;;;;;;;8.98;4.38;;;;;;;;;;4914040;29;20091;-86
2022/11/07 12:29:58;;;;;;;6.22;3.90;;;;;;;;;;4903423;29;20043;-87
2022/11/07 12:33:02;;;;;;;6.50;3.50;;;;;;;;;;4919584;29;20048;-86
2022/11/07 12:35:40;;;;;;;6.80;4.00;;;;;;;;;;4919058;29;20176;-89
2022/11/07 12:38:30;;;;;;;11.82;4.97;;;;;;;;;;4907254;29;20036;-89
2022/11/07 12:41:02;;;;;;;10.90;4.10;;;;;;;;;;4914794;29;20028;-87
2022/11/07 12:43:43;;;;;;;8.85;3.38;;;;;;;;;;4904807;29;20047;-86
2022/11/07 12:46:27;;;;;;;4.80;2.75;;;;;;;;;;4918035;29;20036;-88
2022/11/07 13:40:11;;;;;;;9.93;3.08;;;;;;;;;;4842805;29;20052;-87
2022/11/07 13:42:44;;;;;;;4.40;3.33;;;;;;;;;;4834969;29;20542;-86
2022/11/07 13:45:59;;;;;;;5.45;3.53;;;;;;;;;;4856723;29;20038;-86
2022/11/07 13:49:01;;;;;;;7.68;3.83;;;;;;;;;;4857784;29;20033;-87
2022/11/07 13:51:55;;;;;;;4.45;2.90;;;;;;;;;;4837895;29;21012;-88
2022/11/07 13:54:45;;;;;;;11.20;3.42;;;;;;;;;;4839576;29;20193;-87
2022/11/07 13:57:26;;;;;;;5.32;3.97;;;;;;;;;;4839690;29;20034;-88
2022/11/07 14:00:05;;;;;;;7.25;3.90;;;;;;;;;;4862233;29;20048;-85
2022/11/07 14:02:33;;;;;;;5.63;3.70;;;;;;;;;;4905237;29;20075;-85
2022/11/07 14:05:05;;;;;;;8.07;4.28;;;;;;;;;;4912343;29;20297;-87
2022/11/07 14:07:36;;;;;;;8.25;3.47;;;;;;;;;;4912248;29;20045;-87
2022/11/07 14:10:04;;;;;;;4.95;3.28;;;;;;;;;;4910543;29;20579;-88
2022/11/07 14:12:30;;;;;;;11.52;3.80;;;;;;;;;;4905861;29;20128;-88
2022/11/07 14:14:57;;;;;;;5.13;3.47;;;;;;;;;;4909356;29;20111;-87
2022/11/07 14:17:35;;;;;;;5.88;3.95;;;;;;;;;;4908367;29;20060;-90
2022/11/07 14:20:15;;;;;;;5.90;3.92;;;;;;;;;;4915415;29;20036;-87
2022/11/07 14:23:01;;;;;;;7.35;4.07;;;;;;;;;;4900800;29;20093;-88
2022/11/07 14:25:36;;;;;;;6.78;3.22;;;;;;;;;;4910128;29;20040;-85
2022/11/07 14:28:12;;;;;;;4.72;3.13;;;;;;;;;;4898480;29;20047;-89
2022/11/07 14:30:39;;;;;;;8.43;3.38;;;;;;;;;;4900940;29;20118;-89
2022/11/07 14:33:05;;;;;;;4.72;2.85;;;;;;;;;;4896875;29;20036;-90
2022/11/07 14:35:33;;;;;;;4.95;3.28;;;;;;;;;;4916848;29;20124;-92
2022/11/07 14:38:10;;;;;;;4.90;3.53;;;;;;;;;;4910931;29;20040;-91
2022/11/07 14:40:36;;;;;;;4.07;2.45;;;;;;;;;;4907787;29;20036;-89
2022/11/07 14:43:03;;;;;;;6.05;3.75;;;;;;;;;;4886517;29;20840;-89
2022/11/07 14:45:29;;;;;;;9.40;3.47;;;;;;;;;;4903589;29;20051;-87
2022/11/07 14:47:54;;;;;;;7.78;3.72;;;;;;;;;;4909270;29;20036;-90
2022/11/07 14:50:29;;;;;;;6.03;3.47;;;;;;;;;;4899455;29;20032;-90
2022/11/07 14:53:07;;;;;;;5.32;3.20;;;;;;;;;;4908628;29;20496;-87
2022/11/07 14:55:38;;;;;;;7.50;3.10;;;;;;;;;;4899367;29;20441;-86
2022/11/07 14:58:05;;;;;;;6.15;2.97;;;;;;;;;;4910202;29;20495;-89
2022/11/07 15:00:31;;;;;;;5.88;3.75;;;;;;;;;;4912460;29;20051;-89
2022/11/07 15:02:58;;;;;;;4.47;3.17;;;;;;;;;;4890974;29;20075;-89
2022/11/07 15:05:29;;;;;;;10.45;3.95;;;;;;;;;;4894009;29;20505;-88
2022/11/07 15:07:56;;;;;;;7.45;3.90;;;;;;;;;;4875161;29;20044;-88
2022/11/07 15:10:27;;;;;;;4.63;3.45;;;;;;;;;;4893133;29;20036;-88
2022/11/07 15:12:56;;;;;;;4.68;3.65;;;;;;;;;;4899462;29;20131;-90
2022/11/07 15:15:25;;;;;;;5.20;2.95;;;;;;;;;;4874719;29;20052;-89
2022/11/07 15:17:54;;;;;;;4.60;3.25;;;;;;;;;;4892994;29;20481;-88
2022/11/07 15:20:23;;;;;;;7.20;4.25;;;;;;;;;;4872227;29;20039;-88
2022/11/07 15:22:48;;;;;;;5.03;3.63;;;;;;;;;;4890980;29;20124;-89
2022/11/07 15:25:35;;;;;;;5.55;3.70;;;;;;;;;;4894349;29;20145;-88
2022/11/07 15:28:16;;;;;;;3.88;2.72;;;;;;;;;;4894315;29;20040;-87
2022/11/07 15:30:42;;;;;;;4.68;3.67;;;;;;;;;;4880036;29;20505;-86
2022/11/07 15:33:09;;;;;;;7.50;3.45;;;;;;;;;;4879856;29;20042;-88
2022/11/07 15:35:36;;;;;;;2.90;2.30;;;;;;;;;;4895736;29;20036;-86
2022/11/07 15:38:02;;;;;;;7.18;3.00;;;;;;;;;;4891426;29;20051;-85
2022/11/07 15:40:28;;;;;;;4.80;3.25;;;;;;;;;;4887535;29;20037;-86
2022/11/07 15:42:54;;;;;;;3.90;2.92;;;;;;;;;;4893813;29;20037;-88
2022/11/07 15:45:20;;;;;;;3.25;2.47;;;;;;;;;;4887654;29;20049;-87
2022/11/07 15:47:46;;;;;;;4.25;2.47;;;;;;;;;;4873087;29;20430;-87
2022/11/07 15:50:17;;;;;;;5.13;3.95;;;;;;;;;;4890446;29;20041;-87
2022/11/07 15:52:44;;;;;;;5.65;2.85;;;;;;;;;;4893245;29;20036;-86
2022/11/07 15:55:16;;;;;;;9.13;4.25;;;;;;;;;;4890956;29;20423;-87
2022/11/07 15:57:42;;;;;;;11.55;4.68;;;;;;;;;;4877352;29;20033;-87
2022/11/07 16:00:20;;;;;;;8.30;4.70;;;;;;;;;;4894675;29;20505;-87
2022/11/07 16:02:46;;;;;;;5.80;2.90;;;;;;;;;;4895514;29;20131;-88
2022/11/07 16:05:12;;;;;;;7.45;3.45;;;;;;;;;;4890561;29;20532;-88
2022/11/07 16:07:40;;;;;;;8.18;2.78;;;;;;;;;;4891585;29;20042;-86
2022/11/07 16:10:25;;;;;;;4.60;2.75;;;;;;;;;;4893003;29;20068;-86
2022/11/07 16:12:52;;;;;;;4.18;3.35;;;;;;;;;;4890737;29;20071;-86
2022/11/07 16:15:21;;;;;;;4.43;3.60;;;;;;;;;;4891282;29;20500;-86
2022/11/07 16:17:46;;;;;;;3.65;2.70;;;;;;;;;;4889634;29;20039;-86
2022/11/07 16:20:15;;;;;;;4.70;3.05;;;;;;;;;;4900735;29;20044;-85
2022/11/07 16:22:41;;;;;;;2.90;2.00;;;;;;;;;;4884205;29;20056;-85
2022/11/07 16:25:11;;;;;;;4.53;2.80;;;;;;;;;;4912097;29;20088;-85
2022/11/07 16:27:37;;;;;;;4.40;2.83;;;;;;;;;;4904401;29;20037;-87
2022/11/07 16:30:09;;;;;;;6.38;3.83;;;;;;;;;;4910930;29;20514;-86
2022/11/07 16:32:34;;;;;;;5.07;3.22;;;;;;;;;;4906359;29;20068;-86
2022/11/07 16:34:59;;;;;;;6.93;3.45;;;;;;;;;;4905812;29;20063;-88
2022/11/07 16:37:25;;;;;;;3.53;2.78;;;;;;;;;;4901815;29;20911;-87
2022/11/07 16:39:50;;;;;;;9.48;5.47;;;;;;;;;;4894288;29;20055;-87
2022/11/07 16:42:16;;;;;;;9.15;4.70;;;;;;;;;;4914013;29;20477;-85
2022/11/07 16:44:41;;;;;;;8.27;4.53;;;;;;;;;;4898395;29;20133;-86
2022/11/07 16:47:15;;;;;;;4.88;3.30;;;;;;;;;;4896759;29;20040;-85
2022/11/07 16:49:41;;;;;;;5.65;3.50;;;;;;;;;;4914556;29;20040;-86
2022/11/07 16:52:13;;;;;;;5.80;3.92;;;;;;;;;;4903340;29;20040;-85
2022/11/07 16:54:39;;;;;;;5.82;4.07;;;;;;;;;;4913080;29;20442;-84
2022/11/07 16:57:12;;;;;;;4.15;3.03;;;;;;;;;;4912931;29;20038;-85
2022/11/07 16:59:38;;;;;;;4.05;2.50;;;;;;;;;;4903028;29;20058;-86
2022/11/07 17:02:15;;;;;;;9.02;3.17;;;;;;;;;;4895720;29;20047;-84
2022/11/07 17:04:40;;;;;;;7.55;3.90;;;;;;;;;;4913397;29;20048;-87
2022/11/07 17:07:06;;;;;;;4.45;2.42;;;;;;;;;;4919144;29;20386;-87
2022/11/07 17:09:34;;;;;;;3.85;2.42;;;;;;;;;;4911555;29;20367;-87
2022/11/07 17:12:00;;;;;;;4.95;2.90;;;;;;;;;;4899505;29;20481;-87
2022/11/07 17:14:25;;;;;;;6.15;2.60;;;;;;;;;;4910350;29;20067;-87
2022/11/07 17:16:50;;;;;;;3.78;2.63;;;;;;;;;;4909785;29;20501;-87
2022/11/07 17:19:19;;;;;;;4.22;2.40;;;;;;;;;;4914702;29;20044;-86
2022/11/07 17:29:57;;;;;;;;;;;;;;;;;;;;;
2022/11/07 17:32:56;;;;;;;4.78;2.75;;;;;;;;;;4826974;29;20077;-88
2022/11/07 17:47:04;;;;;;;;;;;;;;;;;;;;;
2022/11/07 17:50:06;;;;;;;;;;;;;;;;;;;;;
2022/11/07 18:03:18;;;;;;;;;;;;;;;;;;;;;
2022/11/07 18:09:48;;;;;;;;;;;;;;;;;;;;;
2022/11/07 18:13:25;;;;;;;;;;;;;;;;;;;;;
2022/11/07 18:26:58;;;;;;;;;;;;;;;;;;;;;
2022/11/07 18:33:21;;;;;;;;;;;;;;;;;;;;;
2022/11/07 18:49:39;;;;;;;5.00;2.65;;;;;;;;;;4839736;29;20101;-84
2022/11/07 18:56:30;;;;;;;2.85;1.73;;;;;;;;;;4844560;29;20120;-86
2022/11/07 19:19:52;;;;;;;7.80;4.97;;;;;;;;;;4895543;29;19979;-86